createdAt,value
2022-12-14T00:00:38.435Z,0.1
2022-12-14T00:01:49.438Z,0.1
2022-12-14T00:02:52.789Z,0.1
2022-12-14T00:03:59.167Z,0.1
2022-12-14T00:05:06.312Z,0.1
2022-12-14T00:06:13.418Z,0.1
2022-12-14T00:07:20.513Z,0.1
2022-12-14T00:08:27.500Z,0.1
2022-12-14T00:09:34.221Z,0.1
2022-12-14T00:10:41.330Z,0.1
2022-12-14T00:11:48.411Z,0.1
2022-12-14T00:12:55.547Z,0.1
2022-12-14T00:14:02.201Z,0.1
2022-12-14T00:15:09.202Z,0.1
2022-12-14T00:16:16.426Z,0.1
2022-12-14T00:17:23.417Z,0.1
2022-12-14T00:18:30.708Z,0.1
2022-12-14T00:19:37.198Z,0.1
2022-12-14T00:20:44.249Z,0.2
2022-12-14T00:21:51.351Z,0.1
2022-12-14T00:22:58.431Z,0.2
2022-12-14T00:24:05.576Z,0.2
2022-12-14T00:25:12.737Z,0.2
2022-12-14T00:26:19.219Z,0.2
2022-12-14T00:27:26.378Z,0.2
2022-12-14T00:28:33.441Z,0.2
2022-12-14T00:29:40.530Z,0.2
2022-12-14T00:30:47.229Z,0.2
2022-12-14T00:31:54.212Z,0.2
2022-12-14T00:34:08.536Z,0.2
2022-12-14T00:35:15.549Z,0.2
2022-12-14T00:37:29.210Z,0.2
2022-12-14T00:38:36.360Z,0.1
2022-12-14T00:39:43.493Z,0.1
2022-12-14T00:40:50.585Z,0.1
2022-12-14T00:41:57.196Z,0
2022-12-14T00:43:04.244Z,0
2022-12-14T00:44:11.334Z,0
2022-12-14T00:45:18.440Z,0
2022-12-14T00:46:25.719Z,0
2022-12-14T00:47:37.495Z,0
2022-12-14T00:48:39.226Z,0
2022-12-14T00:50:53.537Z,-0.1
2022-12-14T00:52:00.602Z,-0.1
2022-12-14T00:53:07.148Z,-0.1
2022-12-14T00:54:14.291Z,-0.1
2022-12-14T00:55:21.911Z,-0.1
2022-12-14T00:56:28.521Z,-0.1
2022-12-14T00:57:35.588Z,-0.1
2022-12-14T00:58:42.167Z,-0.1
2022-12-14T00:59:49.244Z,-0.1
2022-12-14T01:00:56.389Z,-0.1
2022-12-14T01:02:03.706Z,-0.1
2022-12-14T01:03:10.689Z,0
2022-12-14T01:04:17.313Z,0
2022-12-14T01:05:24.299Z,0
2022-12-14T01:06:31.439Z,0
2022-12-14T01:07:38.482Z,0
2022-12-14T01:08:45.609Z,0
2022-12-14T01:09:52.211Z,0
2022-12-14T01:10:59.261Z,0
2022-12-14T01:12:06.499Z,0
2022-12-14T01:13:13.507Z,0
2022-12-14T01:15:27.199Z,0
2022-12-14T01:16:34.345Z,0
2022-12-14T01:17:41.541Z,0
2022-12-14T01:18:48.504Z,0
2022-12-14T01:19:55.605Z,0
2022-12-14T01:21:02.179Z,-0.1
2022-12-14T01:22:09.314Z,-0.1
2022-12-14T01:23:16.440Z,0
2022-12-14T01:24:23.512Z,0
2022-12-14T01:25:30.629Z,0
2022-12-14T01:26:37.760Z,0.1
2022-12-14T01:27:44.331Z,0.1
2022-12-14T01:28:51.438Z,0.2
2022-12-14T01:29:58.498Z,0.2
2022-12-14T01:31:05.743Z,0.2
2022-12-14T01:32:12.296Z,0.3
2022-12-14T01:33:19.309Z,0.3
2022-12-14T01:34:26.449Z,0.4
2022-12-14T01:35:33.554Z,0.4
2022-12-14T01:36:40.662Z,0.4
2022-12-14T01:37:48.929Z,0.4
2022-12-14T01:38:54.322Z,0.4
2022-12-14T01:41:08.517Z,0.4
2022-12-14T01:42:15.734Z,0.4
2022-12-14T01:43:22.259Z,0.3
2022-12-14T01:44:29.304Z,0.3
2022-12-14T01:45:36.438Z,0.2
2022-12-14T01:46:43.655Z,0.2
2022-12-14T01:47:50.649Z,0.2
2022-12-14T01:48:57.241Z,0.2
2022-12-14T01:50:04.362Z,0.2
2022-12-14T01:51:11.449Z,0.2
2022-12-14T01:52:18.522Z,0.2
2022-12-14T01:53:25.913Z,0.2
2022-12-14T01:54:32.348Z,0.1
2022-12-14T01:56:46.502Z,0.1
2022-12-14T01:57:53.564Z,0.1
2022-12-14T01:59:01.179Z,0.1
2022-12-14T02:00:07.758Z,0.1
2022-12-14T02:01:14.464Z,0.1
2022-12-14T02:02:21.615Z,0
2022-12-14T02:03:28.958Z,0
2022-12-14T02:04:35.677Z,0
2022-12-14T02:05:42.260Z,0
2022-12-14T02:06:49.341Z,0
2022-12-14T02:07:56.474Z,0
2022-12-14T02:09:03.591Z,0
2022-12-14T02:10:10.725Z,0
2022-12-14T02:11:17.233Z,0
2022-12-14T02:12:24.439Z,0.1
2022-12-14T02:13:31.627Z,0.1
2022-12-14T02:14:38.554Z,0.2
2022-12-14T02:15:45.220Z,0.2
2022-12-14T02:16:52.330Z,0.2
2022-12-14T02:19:06.491Z,0.3
2022-12-14T02:20:13.594Z,0.4
2022-12-14T02:21:20.687Z,0.4
2022-12-14T02:22:27.261Z,0.4
2022-12-14T02:23:34.394Z,0.4
2022-12-14T02:24:41.486Z,0.4
2022-12-14T02:25:49.645Z,0.4
2022-12-14T02:26:55.258Z,0.4
2022-12-14T02:28:02.297Z,0.4
2022-12-14T02:29:09.414Z,0.4
2022-12-14T02:30:16.496Z,0.4
2022-12-14T02:31:23.677Z,0.4
2022-12-14T02:32:30.169Z,0.4
2022-12-14T02:33:37.268Z,0.4
2022-12-14T02:34:44.398Z,0.4
2022-12-14T02:35:51.522Z,0.4
2022-12-14T02:38:05.743Z,0.3
2022-12-14T02:39:12.335Z,0.3
2022-12-14T02:40:19.390Z,0.2
2022-12-14T02:41:26.598Z,0.2
2022-12-14T02:42:33.727Z,0.2
2022-12-14T02:44:47.295Z,0.2
2022-12-14T02:45:54.420Z,0.2
2022-12-14T02:47:01.624Z,0.2
2022-12-14T02:48:08.614Z,0.2
2022-12-14T02:49:15.215Z,0.2
2022-12-14T02:50:22.331Z,0.3
2022-12-14T02:51:29.420Z,0.4
2022-12-14T02:52:36.539Z,0.4
2022-12-14T02:53:43.665Z,0.4
2022-12-14T02:54:50.748Z,0.4
2022-12-14T02:55:57.305Z,0.4
2022-12-14T02:57:04.523Z,0.5
2022-12-14T02:58:11.549Z,0.4
2022-12-14T02:59:18.631Z,0.4
2022-12-14T03:00:25.238Z,0.4
2022-12-14T03:01:32.749Z,0.4
2022-12-14T03:02:40.079Z,0.4
2022-12-14T03:03:46.571Z,0.3
2022-12-14T03:04:53.644Z,0.3
2022-12-14T03:06:00.722Z,0.3
2022-12-14T03:07:07.374Z,0.2
2022-12-14T03:08:14.419Z,0.2
2022-12-14T03:09:21.568Z,0.2
2022-12-14T03:10:28.639Z,0.1
2022-12-14T03:11:35.334Z,0.1
2022-12-14T03:12:42.383Z,0
2022-12-14T03:13:49.431Z,0
2022-12-14T03:14:56.560Z,0
2022-12-14T03:16:03.787Z,0
2022-12-14T03:17:10.285Z,-0.1
2022-12-14T03:19:24.595Z,-0.2
2022-12-14T03:20:31.603Z,-0.2
2022-12-14T03:21:38.788Z,-0.2
2022-12-14T03:22:45.270Z,-0.3
2022-12-14T03:23:52.389Z,-0.3
2022-12-14T03:24:59.466Z,-0.3
2022-12-14T03:26:06.559Z,-0.3
2022-12-14T03:27:13.769Z,-0.3
2022-12-14T03:28:20.783Z,-0.3
2022-12-14T03:29:27.369Z,-0.3
2022-12-14T03:30:58.769Z,-0.3
2022-12-14T03:31:41.701Z,-0.3
2022-12-14T03:32:48.671Z,-0.4
2022-12-14T03:33:55.269Z,-0.4
2022-12-14T03:35:02.425Z,-0.4
2022-12-14T03:36:09.462Z,-0.4
2022-12-14T03:37:16.711Z,-0.4
2022-12-14T03:38:23.690Z,-0.5
2022-12-14T03:39:30.278Z,-0.6
2022-12-14T03:40:37.370Z,-0.6
2022-12-14T03:41:44.527Z,-0.6
2022-12-14T03:42:51.594Z,-0.6
2022-12-14T03:43:58.687Z,-0.6
2022-12-14T03:45:05.441Z,-0.5
2022-12-14T03:48:26.656Z,-0.3
2022-12-14T03:49:33.709Z,-0.3
2022-12-14T03:50:40.852Z,-0.3
2022-12-14T03:51:47.477Z,-0.3
2022-12-14T03:52:54.535Z,-0.3
2022-12-14T03:54:01.651Z,-0.3
2022-12-14T03:55:08.719Z,-0.2
2022-12-14T03:56:15.323Z,-0.3
2022-12-14T03:57:22.469Z,-0.3
2022-12-14T03:58:29.511Z,-0.3
2022-12-14T04:00:43.786Z,-0.3
2022-12-14T04:01:50.509Z,-0.3
2022-12-14T04:02:57.439Z,-0.3
2022-12-14T04:04:04.563Z,-0.2
2022-12-14T04:05:11.642Z,-0.2
2022-12-14T04:06:18.822Z,-0.2
2022-12-14T04:07:25.380Z,-0.2
2022-12-14T04:08:32.435Z,-0.2
2022-12-14T04:09:39.506Z,-0.2
2022-12-14T04:10:46.599Z,-0.2
2022-12-14T04:11:53.808Z,-0.2
2022-12-14T04:13:00.340Z,-0.2
2022-12-14T04:14:07.426Z,-0.2
2022-12-14T04:15:14.554Z,-0.2
2022-12-14T04:16:21.719Z,-0.2
2022-12-14T04:17:28.221Z,-0.2
2022-12-14T04:18:35.332Z,-0.3
2022-12-14T04:19:42.452Z,-0.3
2022-12-14T04:20:49.519Z,-0.3
2022-12-14T04:21:56.681Z,-0.3
2022-12-14T04:23:04.313Z,-0.3
2022-12-14T04:24:10.348Z,-0.2
2022-12-14T04:25:17.420Z,-0.3
2022-12-14T04:26:24.558Z,-0.2
2022-12-14T04:27:31.706Z,-0.3
2022-12-14T04:28:38.763Z,-0.3
2022-12-14T04:29:47.398Z,-0.3
2022-12-14T04:30:52.463Z,-0.3
2022-12-14T04:31:59.848Z,-0.3
2022-12-14T04:33:06.667Z,-0.2
2022-12-14T04:34:13.778Z,-0.1
2022-12-14T04:35:20.370Z,0
2022-12-14T04:36:27.437Z,0
2022-12-14T04:37:34.629Z,0.2
2022-12-14T04:38:41.682Z,0.2
2022-12-14T04:39:48.762Z,0.3
2022-12-14T04:40:55.380Z,0.3
2022-12-14T04:42:02.539Z,0.4
2022-12-14T04:43:09.707Z,0.4
2022-12-14T04:44:16.660Z,0.4
2022-12-14T04:45:23.793Z,0.4
2022-12-14T04:46:30.469Z,0.4
2022-12-14T04:47:37.442Z,0.3
2022-12-14T04:48:44.604Z,0.3
2022-12-14T04:49:51.694Z,0.3
2022-12-14T04:50:58.767Z,0.2
2022-12-14T04:52:05.774Z,0.2
2022-12-14T04:53:12.524Z,0.2
2022-12-14T04:54:19.573Z,0.2
2022-12-14T04:55:26.697Z,0.1
2022-12-14T04:56:33.334Z,0.1
2022-12-14T04:57:40.385Z,0
2022-12-14T04:58:47.493Z,0
2022-12-14T04:59:54.617Z,0
2022-12-14T05:01:01.752Z,0
2022-12-14T05:02:08.523Z,0
2022-12-14T05:03:15.391Z,0
2022-12-14T05:04:22.520Z,0
2022-12-14T05:05:29.591Z,0
2022-12-14T05:06:36.707Z,0
2022-12-14T05:07:43.297Z,0
2022-12-14T05:08:50.398Z,0
2022-12-14T05:09:58.007Z,0
2022-12-14T05:11:23.232Z,0
2022-12-14T05:12:11.774Z,-0.1
2022-12-14T05:13:18.793Z,-0.1
2022-12-14T05:15:32.533Z,-0.2
2022-12-14T05:16:39.717Z,-0.2
2022-12-14T05:17:46.710Z,-0.1
2022-12-14T05:18:53.337Z,0
2022-12-14T05:20:00.523Z,0
2022-12-14T05:21:07.512Z,0
2022-12-14T05:22:14.688Z,0
2022-12-14T05:23:21.736Z,0
2022-12-14T05:24:28.293Z,0
2022-12-14T05:25:35.430Z,0
2022-12-14T05:26:42.603Z,0
2022-12-14T05:27:49.659Z,0
2022-12-14T05:28:56.711Z,0
2022-12-14T05:30:03.839Z,-0.1
2022-12-14T05:31:10.496Z,-0.1
2022-12-14T05:32:17.595Z,-0.1
2022-12-14T05:33:25.155Z,-0.1
2022-12-14T05:34:31.754Z,-0.1
2022-12-14T05:35:38.840Z,-0.1
2022-12-14T05:36:45.582Z,-0.1
2022-12-14T05:37:52.544Z,-0.1
2022-12-14T05:38:59.648Z,-0.1
2022-12-14T05:40:06.257Z,-0.1
2022-12-14T05:41:13.389Z,0
2022-12-14T05:42:20.457Z,0
2022-12-14T05:43:27.863Z,0
2022-12-14T05:44:34.692Z,0
2022-12-14T05:45:41.807Z,0
2022-12-14T05:46:48.398Z,-0.1
2022-12-14T05:47:55.449Z,-0.1
2022-12-14T05:49:02.562Z,-0.1
2022-12-14T05:50:09.634Z,-0.1
2022-12-14T05:51:16.766Z,-0.1
2022-12-14T05:52:23.409Z,-0.1
2022-12-14T05:53:30.849Z,-0.2
2022-12-14T05:54:37.558Z,-0.2
2022-12-14T05:55:44.677Z,-0.3
2022-12-14T05:56:51.769Z,-0.3
2022-12-14T05:57:58.331Z,-0.3
2022-12-14T05:59:05.478Z,-0.3
2022-12-14T06:00:12.600Z,-0.3
2022-12-14T06:01:20.021Z,-0.3
2022-12-14T06:02:26.926Z,-0.3
2022-12-14T06:03:33.396Z,-0.3
2022-12-14T06:04:40.543Z,-0.3
2022-12-14T06:05:48.616Z,-0.4
2022-12-14T06:06:54.774Z,-0.4
2022-12-14T06:08:01.809Z,-0.4
2022-12-14T06:09:08.360Z,-0.3
2022-12-14T06:10:15.489Z,-0.3
2022-12-14T06:11:22.604Z,-0.3
2022-12-14T06:12:29.680Z,-0.3
2022-12-14T06:14:43.386Z,-0.1
2022-12-14T06:15:50.528Z,-0.1
2022-12-14T06:16:57.660Z,0
2022-12-14T06:18:04.719Z,0
2022-12-14T06:19:11.892Z,0
2022-12-14T06:20:18.381Z,0
2022-12-14T06:21:25.498Z,0
2022-12-14T06:22:32.659Z,0.1
2022-12-14T06:23:39.691Z,0.1
2022-12-14T06:24:46.794Z,0.1
2022-12-14T06:25:53.411Z,0
2022-12-14T06:27:00.478Z,0.1
2022-12-14T06:28:07.588Z,0.1
2022-12-14T06:29:14.741Z,0.1
2022-12-14T06:30:21.822Z,0.2
2022-12-14T06:31:28.399Z,0.2
2022-12-14T06:32:35.576Z,0.2
2022-12-14T06:33:42.611Z,0.2
2022-12-14T06:34:49.703Z,0.3
2022-12-14T06:35:56.793Z,0.3
2022-12-14T06:37:03.470Z,0.4
2022-12-14T06:38:10.520Z,0.4
2022-12-14T06:39:17.630Z,0.4
2022-12-14T06:40:24.699Z,0.4
2022-12-14T06:41:31.858Z,0.5
2022-12-14T06:43:45.608Z,0.6
2022-12-14T06:44:52.778Z,0.6
2022-12-14T06:45:59.809Z,0.6
2022-12-14T06:47:06.882Z,0.5
2022-12-14T06:48:13.426Z,0.5
2022-12-14T06:49:20.562Z,0.5
2022-12-14T06:50:27.608Z,0.4
2022-12-14T06:51:34.769Z,0.5
2022-12-14T06:52:41.948Z,0.4
2022-12-14T06:53:48.411Z,0.4
2022-12-14T06:54:55.570Z,0.4
2022-12-14T06:56:02.638Z,0.4
2022-12-14T06:57:09.812Z,0.4
2022-12-14T06:58:16.859Z,0.4
2022-12-14T06:59:23.428Z,0.3
2022-12-14T07:00:30.551Z,0.3
2022-12-14T07:01:37.721Z,0.3
2022-12-14T07:02:45.029Z,0.3
2022-12-14T07:03:51.949Z,0.3
2022-12-14T07:04:58.438Z,0.2
2022-12-14T07:06:05.568Z,0.2
2022-12-14T07:07:12.718Z,0.2
2022-12-14T07:08:19.733Z,0.2
2022-12-14T07:09:26.841Z,0.3
2022-12-14T07:10:33.536Z,0.3
2022-12-14T07:11:40.616Z,0.3
2022-12-14T07:12:47.642Z,0.4
2022-12-14T07:13:54.779Z,0.4
2022-12-14T07:15:01.383Z,0.4
2022-12-14T07:16:08.498Z,0.4
2022-12-14T07:18:22.689Z,0.4
2022-12-14T07:19:29.751Z,0.4
2022-12-14T07:20:36.391Z,0.4
2022-12-14T07:21:43.645Z,0.4
2022-12-14T07:22:50.580Z,0.4
2022-12-14T07:23:57.677Z,0.4
2022-12-14T07:25:04.790Z,0.4
2022-12-14T07:26:11.909Z,0.4
2022-12-14T07:27:18.539Z,0.4
2022-12-14T07:28:25.588Z,0.3
2022-12-14T07:29:34.822Z,0.3
2022-12-14T07:30:39.782Z,0.3
2022-12-14T07:31:49.636Z,0.3
2022-12-14T07:32:53.510Z,0.3
2022-12-14T07:34:00.559Z,0.3
2022-12-14T07:35:11.723Z,0.3
2022-12-14T07:36:14.783Z,0.3
2022-12-14T07:37:21.468Z,0.3
2022-12-14T07:38:28.481Z,0.3
2022-12-14T07:39:35.600Z,0.3
2022-12-14T07:40:42.681Z,0.3
2022-12-14T07:41:49.867Z,0.3
2022-12-14T07:42:56.399Z,0.3
2022-12-14T07:44:03.495Z,0.4
2022-12-14T07:45:10.629Z,0.4
2022-12-14T07:46:17.802Z,0.4
2022-12-14T07:47:24.892Z,0.4
2022-12-14T07:48:31.938Z,0.4
2022-12-14T07:49:38.501Z,0.5
2022-12-14T07:50:45.651Z,0.4
2022-12-14T07:51:52.763Z,0.4
2022-12-14T07:52:59.821Z,0.4
2022-12-14T07:54:06.418Z,0.4
2022-12-14T07:55:13.520Z,0.3
2022-12-14T07:56:20.642Z,0.3
2022-12-14T07:57:27.754Z,0.3
2022-12-14T07:58:34.861Z,0.3
2022-12-14T07:59:41.419Z,0.2
2022-12-14T08:00:48.520Z,0.3
2022-12-14T08:01:55.804Z,0.2
2022-12-14T08:03:02.781Z,0.2
2022-12-14T08:04:09.926Z,0.2
2022-12-14T08:05:16.429Z,0.2
2022-12-14T08:06:23.559Z,0.2
2022-12-14T08:07:30.693Z,0.2
2022-12-14T08:08:37.738Z,0.2
2022-12-14T08:09:44.880Z,0.2
2022-12-14T08:11:58.595Z,0.2
2022-12-14T08:13:05.629Z,0.2
2022-12-14T08:14:12.786Z,0.2
2022-12-14T08:15:19.831Z,0.2
2022-12-14T08:16:26.573Z,0.2
2022-12-14T08:17:33.632Z,0.2
2022-12-14T08:18:40.694Z,0.2
2022-12-14T08:19:47.739Z,0.2
2022-12-14T08:22:01.530Z,0.2
2022-12-14T08:23:08.541Z,0.2
2022-12-14T08:24:15.978Z,0.2
2022-12-14T08:25:22.847Z,0.2
2022-12-14T08:26:35.243Z,0.2
2022-12-14T08:27:36.509Z,0.2
2022-12-14T08:28:43.566Z,0.1
2022-12-14T08:29:50.661Z,0.1
2022-12-14T08:30:57.819Z,0.1
2022-12-14T08:32:04.930Z,0.1
2022-12-14T08:33:11.530Z,0.1
2022-12-14T08:34:18.565Z,0.2
2022-12-14T08:35:25.739Z,0.2
2022-12-14T08:36:32.909Z,0.2
2022-12-14T08:37:45.800Z,0.3
2022-12-14T08:38:46.500Z,0.3
2022-12-14T08:39:53.583Z,0.3
2022-12-14T08:41:00.678Z,0.4
2022-12-14T08:42:08.197Z,0.4
2022-12-14T08:43:14.900Z,0.4
2022-12-14T08:44:21.511Z,0.3
2022-12-14T08:45:28.977Z,0.3
2022-12-14T08:46:35.815Z,0.3
2022-12-14T08:47:42.930Z,0.3
2022-12-14T08:48:49.932Z,0.3
2022-12-14T08:49:56.543Z,0.3
2022-12-14T08:51:03.651Z,0.2
2022-12-14T08:52:11.342Z,0.2
2022-12-14T08:53:17.831Z,0.2
2022-12-14T08:54:24.959Z,0.2
2022-12-14T08:55:38.316Z,0.2
2022-12-14T08:56:38.622Z,0.2
2022-12-14T08:57:46.319Z,0.2
2022-12-14T08:58:52.840Z,0.2
2022-12-14T09:00:01.666Z,0.2
2022-12-14T09:01:06.555Z,0.1
2022-12-14T09:02:13.807Z,0.1
2022-12-14T09:03:20.785Z,0.1
2022-12-14T09:04:27.801Z,0.1
2022-12-14T09:05:35.041Z,0.1
2022-12-14T09:06:41.826Z,0.1
2022-12-14T09:07:48.839Z,0.1
2022-12-14T09:08:55.764Z,0.1
2022-12-14T09:10:02.863Z,0.1
2022-12-14T09:11:09.991Z,0.1
2022-12-14T09:12:16.602Z,0.1
2022-12-14T09:13:23.645Z,0.1
2022-12-14T09:14:30.768Z,0.1
2022-12-14T09:15:37.895Z,0.1
2022-12-14T09:16:45.629Z,0.1
2022-12-14T09:17:51.672Z,0.1
2022-12-14T09:18:58.717Z,0.1
2022-12-14T09:20:05.884Z,0.1
2022-12-14T09:21:12.868Z,0.1
2022-12-14T09:22:20.134Z,0.2
2022-12-14T09:23:26.867Z,0.1
2022-12-14T09:25:40.771Z,0.1
2022-12-14T09:26:47.885Z,0.1
2022-12-14T09:27:54.954Z,0.1
2022-12-14T09:29:01.587Z,0.1
2022-12-14T09:30:08.640Z,0.1
2022-12-14T09:31:15.909Z,0.1
2022-12-14T09:32:22.991Z,0.1
2022-12-14T09:33:30.494Z,0.1
2022-12-14T09:34:36.546Z,0.1
2022-12-14T09:35:43.668Z,0.1
2022-12-14T09:36:50.897Z,0.1
2022-12-14T09:37:58.476Z,0.1
2022-12-14T09:39:05.080Z,0.1
2022-12-14T09:40:11.728Z,0.2
2022-12-14T09:41:18.633Z,0.2
2022-12-14T09:42:25.864Z,0.2
2022-12-14T09:43:37.176Z,0.2
2022-12-14T09:44:40.006Z,0.3
2022-12-14T09:45:48.765Z,0.3
2022-12-14T09:46:53.691Z,0.4
2022-12-14T09:48:00.445Z,0.4
2022-12-14T09:48:00.777Z,0.4
2022-12-14T09:49:08.062Z,0.4
2022-12-14T09:50:14.890Z,0.4
2022-12-14T09:51:21.946Z,0.4
2022-12-14T09:52:30.085Z,0.4
2022-12-14T09:53:36.264Z,0.4
2022-12-14T09:54:43.072Z,0.4
2022-12-14T09:55:49.447Z,0.5
2022-12-14T09:56:56.549Z,0.4
2022-12-14T09:58:03.697Z,0.4
2022-12-14T09:59:10.861Z,0.5
2022-12-14T10:00:18.124Z,0.4
2022-12-14T10:01:24.721Z,0.5
2022-12-14T10:02:33.051Z,0.5
2022-12-14T10:03:39.072Z,0.5
2022-12-14T10:04:47.809Z,0.6
2022-12-14T10:05:52.922Z,0.6
2022-12-14T10:06:59.986Z,0.6
2022-12-14T10:08:06.603Z,0.6
2022-12-14T10:09:13.796Z,0.6
2022-12-14T10:10:21.047Z,0.7
2022-12-14T10:11:27.987Z,0.7
2022-12-14T10:12:34.738Z,0.8
2022-12-14T10:13:43.207Z,0.8
2022-12-14T10:14:49.368Z,0.8
2022-12-14T10:15:56.306Z,0.8
2022-12-14T10:17:03.013Z,0.8
2022-12-14T10:18:27.479Z,0.8
2022-12-14T10:19:17.048Z,0.8
2022-12-14T10:20:24.373Z,0.8
2022-12-14T10:21:31.179Z,0.8
2022-12-14T10:22:38.480Z,0.8
2022-12-14T10:23:44.919Z,0.9
2022-12-14T10:24:52.017Z,0.9
2022-12-14T10:25:58.717Z,0.8
2022-12-14T10:27:06.623Z,0.8
2022-12-14T10:29:19.598Z,0.8
2022-12-14T10:30:27.316Z,0.8
2022-12-14T10:31:33.856Z,0.8
2022-12-14T10:32:40.907Z,0.7
2022-12-14T10:33:47.978Z,0.7
2022-12-14T10:34:54.630Z,0.7
2022-12-14T10:36:02.019Z,0.7
2022-12-14T10:37:09.462Z,0.7
2022-12-14T10:38:16.314Z,0.6
2022-12-14T10:39:22.966Z,0.6
2022-12-14T10:40:34.007Z,0.6
2022-12-14T10:41:37.108Z,0.7
2022-12-14T10:42:44.271Z,0.6
2022-12-14T10:43:51.224Z,0.7
2022-12-14T10:45:23.342Z,0.6
2022-12-14T10:46:11.770Z,0.6
2022-12-14T10:47:11.715Z,0.6
2022-12-14T10:48:19.512Z,0.7
2022-12-14T10:49:26.380Z,0.7
2022-12-14T10:50:33.417Z,0.7
2022-12-14T10:51:40.183Z,0.7
2022-12-14T10:52:46.806Z,0.7
2022-12-14T10:53:54.126Z,0.7
2022-12-14T10:55:01.007Z,0.7
2022-12-14T10:56:08.065Z,0.7
2022-12-14T10:57:14.615Z,0.8
2022-12-14T10:58:22.209Z,0.8
2022-12-14T10:59:35.103Z,0.8
2022-12-14T11:00:36.383Z,0.8
2022-12-14T11:01:43.646Z,0.7
2022-12-14T11:02:50.215Z,0.7
2022-12-14T11:03:57.074Z,0.6
2022-12-14T11:05:04.150Z,0.6
2022-12-14T11:06:10.916Z,0.6
2022-12-14T11:07:18.591Z,0.6
2022-12-14T11:08:25.048Z,0.6
2022-12-14T11:09:31.706Z,0.8
2022-12-14T11:10:39.905Z,0.8
2022-12-14T11:11:46.521Z,1
2022-12-14T11:12:53.324Z,1
2022-12-14T11:14:00.162Z,1.1
2022-12-14T11:15:08.165Z,1.1
2022-12-14T11:16:14.407Z,1.2
2022-12-14T11:17:21.315Z,1.2
2022-12-14T11:18:28.484Z,1.1
2022-12-14T11:19:35.124Z,1.1
2022-12-14T11:20:41.713Z,1.1
2022-12-14T11:21:49.865Z,1.1
2022-12-14T11:22:55.930Z,1.1
2022-12-14T11:24:03.016Z,1
2022-12-14T11:25:09.969Z,1.1
2022-12-14T11:26:16.782Z,1.1
2022-12-14T11:27:24.105Z,1.1
2022-12-14T11:28:36.522Z,1.1
2022-12-14T11:29:38.319Z,1.2
2022-12-14T11:30:44.922Z,1.2
2022-12-14T11:32:59.042Z,1.3
2022-12-14T11:34:05.982Z,1.3
2022-12-14T11:35:13.113Z,1.2
2022-12-14T11:36:19.586Z,1.3
2022-12-14T11:37:27.626Z,1.3
2022-12-14T11:38:34.265Z,1.2
2022-12-14T11:39:40.979Z,1.3
2022-12-14T11:40:48.319Z,1.2
2022-12-14T11:41:54.848Z,1.2
2022-12-14T11:43:02.145Z,1.2
2022-12-14T11:45:16.075Z,1.3
2022-12-14T11:46:23.248Z,1.3
2022-12-14T11:47:30.303Z,1.3
2022-12-14T11:48:37.308Z,1.3
2022-12-14T11:49:44.231Z,1.3
2022-12-14T11:50:50.915Z,1.4
2022-12-14T11:51:58.439Z,1.4
2022-12-14T11:53:10.788Z,1.4
2022-12-14T11:54:11.711Z,1.5
2022-12-14T11:55:24.653Z,1.5
2022-12-14T11:56:25.956Z,1.5
2022-12-14T11:57:32.826Z,1.6
2022-12-14T11:58:39.617Z,1.7
2022-12-14T11:59:46.723Z,1.7
2022-12-14T12:00:53.997Z,1.6
2022-12-14T12:02:01.445Z,1.7
2022-12-14T12:03:08.189Z,1.7
2022-12-14T12:04:14.665Z,1.7
2022-12-14T12:05:21.751Z,1.7
2022-12-14T12:06:29.452Z,1.7
2022-12-14T12:07:36.772Z,1.7
2022-12-14T12:08:43.193Z,1.6
2022-12-14T12:09:50.170Z,1.7
2022-12-14T12:11:01.778Z,1.7
2022-12-14T12:12:04.450Z,1.7
2022-12-14T12:13:11.512Z,1.7
2022-12-14T12:14:17.530Z,1.7
2022-12-14T12:15:25.120Z,1.7
2022-12-14T12:16:31.840Z,1.7
2022-12-14T12:17:39.774Z,1.7
2022-12-14T12:18:46.662Z,1.7
2022-12-14T12:19:52.562Z,1.7
2022-12-14T12:21:00.085Z,1.7
2022-12-14T12:22:06.743Z,1.7
2022-12-14T12:23:14.894Z,1.7
2022-12-14T12:24:22.852Z,1.7
2022-12-14T12:25:37.000Z,1.7
2022-12-14T12:26:39.300Z,1.7
2022-12-14T12:27:41.782Z,1.7
2022-12-14T12:28:49.635Z,1.7
2022-12-14T12:29:55.984Z,1.7
2022-12-14T12:31:06.160Z,1.7
2022-12-14T12:32:09.668Z,1.7
2022-12-14T12:34:24.199Z,1.9
2022-12-14T12:36:37.577Z,2
2022-12-14T12:37:44.742Z,2
2022-12-14T12:38:52.307Z,1.9
2022-12-14T12:40:00.216Z,1.9
2022-12-14T12:41:06.679Z,1.9
2022-12-14T12:42:13.405Z,1.8
2022-12-14T12:43:20.419Z,1.7
2022-12-14T12:44:28.570Z,1.7
2022-12-14T12:45:35.496Z,1.6
2022-12-14T12:47:48.419Z,1.5
2022-12-14T12:48:54.703Z,1.5
2022-12-14T12:50:01.847Z,1.5
2022-12-14T12:51:09.788Z,1.5
2022-12-14T12:52:16.355Z,1.4
2022-12-14T12:53:23.318Z,1.4
2022-12-14T12:54:31.417Z,1.4
2022-12-14T12:55:36.787Z,1.4
2022-12-14T12:56:48.190Z,1.3
2022-12-14T12:57:51.673Z,1.4
2022-12-14T12:58:59.244Z,1.3
2022-12-14T13:00:04.743Z,1.4
2022-12-14T13:01:12.020Z,1.4
2022-12-14T13:02:19.283Z,1.4
2022-12-14T13:03:26.553Z,1.4
2022-12-14T13:04:33.354Z,1.4
2022-12-14T13:05:47.201Z,1.4
2022-12-14T13:06:46.870Z,1.4
2022-12-14T13:07:54.780Z,1.5
2022-12-14T13:09:01.015Z,1.5
2022-12-14T13:10:08.121Z,1.5
2022-12-14T13:11:27.968Z,1.5
2022-12-14T13:13:29.467Z,1.5
2022-12-14T13:15:43.177Z,1.5
2022-12-14T13:16:50.362Z,1.5
2022-12-14T13:17:57.523Z,1.5
2022-12-14T13:19:19.043Z,1.5
2022-12-14T13:20:11.532Z,1.5
2022-12-14T13:21:18.603Z,1.5
2022-12-14T13:22:26.454Z,1.5
2022-12-14T13:23:44.828Z,1.5
2022-12-14T13:24:39.645Z,1.5
2022-12-14T13:25:51.500Z,1.5
2022-12-14T13:26:58.036Z,1.5
2022-12-14T13:28:01.405Z,1.5
2022-12-14T13:29:07.546Z,1.5
2022-12-14T13:30:13.981Z,1.5
2022-12-14T13:31:21.559Z,1.5
2022-12-14T13:32:32.197Z,1.5
2022-12-14T13:33:34.786Z,1.5
2022-12-14T13:34:42.408Z,1.5
2022-12-14T13:35:49.307Z,1.5
2022-12-14T13:36:56.069Z,1.6
2022-12-14T13:38:04.182Z,1.6
2022-12-14T13:40:19.305Z,1.7
2022-12-14T13:41:24.388Z,1.7
2022-12-14T13:42:31.080Z,1.7
2022-12-14T13:43:38.135Z,1.8
2022-12-14T13:44:45.117Z,1.8
2022-12-14T13:45:52.058Z,1.8
2022-12-14T13:46:59.352Z,1.9
2022-12-14T13:48:06.448Z,1.9
2022-12-14T13:49:12.842Z,1.9
2022-12-14T13:50:35.694Z,1.9
2022-12-14T13:51:26.951Z,1.9
2022-12-14T13:52:34.554Z,1.9
2022-12-14T13:53:41.547Z,2
2022-12-14T13:54:48.044Z,2
2022-12-14T13:55:55.170Z,2
2022-12-14T13:57:02.076Z,2
2022-12-14T13:58:09.660Z,2
2022-12-14T13:59:16.119Z,2
2022-12-14T14:00:22.723Z,2
2022-12-14T14:01:29.858Z,2
2022-12-14T14:02:37.091Z,2
2022-12-14T14:03:44.235Z,2
2022-12-14T14:04:51.315Z,2
2022-12-14T14:05:57.676Z,2
2022-12-14T14:07:05.088Z,2
2022-12-14T14:08:12.438Z,1.9
2022-12-14T14:09:19.071Z,1.9
2022-12-14T14:10:25.616Z,1.9
2022-12-14T14:11:37.933Z,1.9
2022-12-14T14:12:40.532Z,1.8
2022-12-14T14:13:49.739Z,1.8
2022-12-14T14:14:54.188Z,1.8
2022-12-14T14:16:27.392Z,1.8
2022-12-14T14:17:07.858Z,1.7
2022-12-14T14:18:15.154Z,1.7
2022-12-14T14:19:22.324Z,1.7
2022-12-14T14:20:29.651Z,1.7
2022-12-14T14:21:47.087Z,1.7
2022-12-14T14:22:43.147Z,1.7
2022-12-14T14:23:49.806Z,1.7
2022-12-14T14:24:56.987Z,1.7
2022-12-14T14:26:10.271Z,1.8
2022-12-14T14:27:10.602Z,1.8
2022-12-14T14:28:29.653Z,1.8
2022-12-14T14:29:25.149Z,1.9
2022-12-14T14:30:31.956Z,1.9
2022-12-14T14:31:39.675Z,1.9
2022-12-14T14:32:46.278Z,1.9
2022-12-14T14:33:52.775Z,1.9
2022-12-14T14:34:59.849Z,1.9
2022-12-14T14:36:07.275Z,1.9
2022-12-14T14:37:14.290Z,1.9
2022-12-14T14:37:14.505Z,1.9
2022-12-14T14:38:20.645Z,1.9
2022-12-14T14:39:54.919Z,2
2022-12-14T14:41:42.022Z,2
2022-12-14T14:43:56.409Z,2.1
2022-12-14T14:45:02.761Z,2.1
2022-12-14T14:46:10.491Z,2.1
2022-12-14T14:47:17.297Z,2.1
2022-12-14T14:48:24.271Z,2.1
2022-12-14T14:49:31.544Z,2.1
2022-12-14T14:50:38.285Z,2.1
2022-12-14T14:51:44.883Z,2.1
2022-12-14T14:52:52.576Z,2.1
2022-12-14T14:53:59.072Z,2.1
2022-12-14T14:55:28.187Z,2.1
2022-12-14T14:56:12.780Z,2.1
2022-12-14T14:57:19.901Z,2.1
2022-12-14T14:58:26.961Z,2.1
2022-12-14T14:59:34.471Z,2.1
2022-12-14T15:00:41.368Z,2.1
2022-12-14T15:01:49.106Z,2.1
2022-12-14T15:02:55.021Z,2.1
2022-12-14T15:04:02.183Z,2
2022-12-14T15:06:17.590Z,2
2022-12-14T15:07:23.300Z,2
2022-12-14T15:08:30.180Z,1.9
2022-12-14T15:09:36.988Z,2
2022-12-14T15:10:44.781Z,2
2022-12-14T15:11:50.960Z,2
2022-12-14T15:12:59.429Z,2
2022-12-14T15:14:04.904Z,2
2022-12-14T15:15:12.601Z,2
2022-12-14T15:16:20.977Z,2
2022-12-14T15:17:26.501Z,1.9
2022-12-14T15:18:33.375Z,1.9
2022-12-14T15:19:40.513Z,1.9
2022-12-14T15:20:46.989Z,1.9
2022-12-14T15:21:54.704Z,1.9
2022-12-14T15:23:03.414Z,1.9
2022-12-14T15:24:07.782Z,1.9
2022-12-14T15:25:15.468Z,1.9
2022-12-14T15:26:21.995Z,1.9
2022-12-14T15:27:29.102Z,1.9
2022-12-14T15:28:36.428Z,1.9
2022-12-14T15:29:49.359Z,1.9
2022-12-14T15:30:50.473Z,1.9
2022-12-14T15:32:00.797Z,1.9
2022-12-14T15:33:04.418Z,1.9
2022-12-14T15:34:11.283Z,1.9
2022-12-14T15:35:18.226Z,1.8
2022-12-14T15:36:25.556Z,1.8
2022-12-14T15:37:32.753Z,1.8
2022-12-14T15:38:39.113Z,1.8
2022-12-14T15:39:48.375Z,1.8
2022-12-14T15:40:53.538Z,1.8
2022-12-14T15:42:00.465Z,1.8
2022-12-14T15:43:07.869Z,1.8
2022-12-14T15:44:14.841Z,1.8
2022-12-14T15:45:20.822Z,1.9
2022-12-14T15:47:35.256Z,1.9
2022-12-14T15:48:42.561Z,1.9
2022-12-14T15:49:49.963Z,1.9
2022-12-14T15:50:56.304Z,1.9
2022-12-14T15:52:02.819Z,1.9
2022-12-14T15:53:10.898Z,1.9
2022-12-14T15:54:17.550Z,1.9
2022-12-14T15:55:24.145Z,1.9
2022-12-14T15:56:31.272Z,1.9
2022-12-14T15:57:38.335Z,2
2022-12-14T15:58:45.183Z,2
2022-12-14T16:00:59.192Z,2.1
2022-12-14T16:02:07.663Z,2.1